sensor_id;sensor_type;location;lat;lon;timestamp;P1;durP1;ratioP1;P2;durP2;ratioP2
10335;SDS011;5213;53.548;9.930;2024-02-23T00:01:02;2.95;;;1.23;;
10335;SDS011;5213;53.548;9.930;2024-02-23T00:03:27;0.80;;;0.80;;
10335;SDS011;5213;53.548;9.930;2024-02-23T00:05:53;1.48;;;1.20;;
10335;SDS011;5213;53.548;9.930;2024-02-23T00:08:19;0.90;;;0.90;;
10335;SDS011;5213;53.548;9.930;2024-02-23T00:10:44;1.00;;;1.00;;
10335;SDS011;5213;53.548;9.930;2024-02-23T00:13:11;1.38;;;1.20;;
10335;SDS011;5213;53.548;9.930;2024-02-23T00:15:36;1.80;;;1.40;;
10335;SDS011;5213;53.548;9.930;2024-02-23T00:18:02;2.47;;;1.70;;
10335;SDS011;5213;53.548;9.930;2024-02-23T00:20:29;1.88;;;1.40;;
10335;SDS011;5213;53.548;9.930;2024-02-23T00:22:54;2.22;;;1.50;;
10335;SDS011;5213;53.548;9.930;2024-02-23T00:25:20;2.15;;;1.60;;
10335;SDS011;5213;53.548;9.930;2024-02-23T00:27:46;3.40;;;1.65;;
10335;SDS011;5213;53.548;9.930;2024-02-23T00:30:12;1.80;;;1.23;;
10335;SDS011;5213;53.548;9.930;2024-02-23T00:32:38;1.50;;;1.40;;
10335;SDS011;5213;53.548;9.930;2024-02-23T00:35:04;1.42;;;1.30;;
10335;SDS011;5213;53.548;9.930;2024-02-23T00:37:30;1.73;;;1.00;;
10335;SDS011;5213;53.548;9.930;2024-02-23T00:40:00;1.35;;;1.00;;
10335;SDS011;5213;53.548;9.930;2024-02-23T00:42:29;1.02;;;1.00;;
10335;SDS011;5213;53.548;9.930;2024-02-23T00:44:56;0.90;;;0.90;;
10335;SDS011;5213;53.548;9.930;2024-02-23T00:47:21;1.13;;;1.00;;
10335;SDS011;5213;53.548;9.930;2024-02-23T00:49:47;0.90;;;0.90;;
10335;SDS011;5213;53.548;9.930;2024-02-23T00:52:14;0.70;;;0.70;;
10335;SDS011;5213;53.548;9.930;2024-02-23T00:54:40;0.73;;;0.60;;
10335;SDS011;5213;53.548;9.930;2024-02-23T00:57:05;0.60;;;0.60;;
10335;SDS011;5213;53.548;9.930;2024-02-23T00:59:31;0.55;;;0.55;;
10335;SDS011;5213;53.548;9.930;2024-02-23T01:01:57;0.55;;;0.40;;
10335;SDS011;5213;53.548;9.930;2024-02-23T01:04:23;0.60;;;0.60;;
10335;SDS011;5213;53.548;9.930;2024-02-23T01:06:48;0.55;;;0.55;;
10335;SDS011;5213;53.548;9.930;2024-02-23T01:09:14;0.63;;;0.63;;
10335;SDS011;5213;53.548;9.930;2024-02-23T01:11:41;0.60;;;0.60;;
10335;SDS011;5213;53.548;9.930;2024-02-23T01:14:07;0.70;;;0.70;;
10335;SDS011;5213;53.548;9.930;2024-02-23T01:16:33;1.65;;;0.88;;
10335;SDS011;5213;53.548;9.930;2024-02-23T01:18:58;0.80;;;0.60;;
10335;SDS011;5213;53.548;9.930;2024-02-23T01:21:24;0.70;;;0.70;;
10335;SDS011;5213;53.548;9.930;2024-02-23T01:23:50;0.80;;;0.80;;
10335;SDS011;5213;53.548;9.930;2024-02-23T01:26:15;0.70;;;0.70;;
10335;SDS011;5213;53.548;9.930;2024-02-23T01:28:41;0.88;;;0.88;;
10335;SDS011;5213;53.548;9.930;2024-02-23T01:31:10;0.90;;;0.90;;
10335;SDS011;5213;53.548;9.930;2024-02-23T01:33:36;2.92;;;0.90;;
10335;SDS011;5213;53.548;9.930;2024-02-23T01:36:04;1.55;;;0.85;;
10335;SDS011;5213;53.548;9.930;2024-02-23T01:38:30;0.80;;;0.80;;
10335;SDS011;5213;53.548;9.930;2024-02-23T01:40:59;1.00;;;0.73;;
10335;SDS011;5213;53.548;9.930;2024-02-23T01:43:25;0.80;;;0.80;;
10335;SDS011;5213;53.548;9.930;2024-02-23T01:45:51;0.80;;;0.80;;
10335;SDS011;5213;53.548;9.930;2024-02-23T01:48:17;0.80;;;0.80;;
10335;SDS011;5213;53.548;9.930;2024-02-23T01:50:43;0.60;;;0.60;;
10335;SDS011;5213;53.548;9.930;2024-02-23T01:53:09;0.95;;;0.80;;
10335;SDS011;5213;53.548;9.930;2024-02-23T01:55:37;0.60;;;0.60;;
10335;SDS011;5213;53.548;9.930;2024-02-23T01:58:05;0.60;;;0.60;;
10335;SDS011;5213;53.548;9.930;2024-02-23T02:00:31;0.40;;;0.40;;
10335;SDS011;5213;53.548;9.930;2024-02-23T02:02:57;0.88;;;0.43;;
10335;SDS011;5213;53.548;9.930;2024-02-23T02:05:23;0.35;;;0.35;;
10335;SDS011;5213;53.548;9.930;2024-02-23T02:07:49;0.40;;;0.40;;
10335;SDS011;5213;53.548;9.930;2024-02-23T02:10:18;0.65;;;0.40;;
10335;SDS011;5213;53.548;9.930;2024-02-23T02:12:45;0.40;;;0.40;;
10335;SDS011;5213;53.548;9.930;2024-02-23T02:15:11;0.85;;;0.30;;
10335;SDS011;5213;53.548;9.930;2024-02-23T02:17:37;0.40;;;0.40;;
10335;SDS011;5213;53.548;9.930;2024-02-23T02:20:03;0.57;;;0.40;;
10335;SDS011;5213;53.548;9.930;2024-02-23T02:22:32;1.45;;;0.68;;
10335;SDS011;5213;53.548;9.930;2024-02-23T02:24:58;0.50;;;0.50;;
10335;SDS011;5213;53.548;9.930;2024-02-23T02:27:24;1.20;;;0.90;;
10335;SDS011;5213;53.548;9.930;2024-02-23T02:29:50;0.55;;;0.55;;
10335;SDS011;5213;53.548;9.930;2024-02-23T02:32:16;0.50;;;0.50;;
10335;SDS011;5213;53.548;9.930;2024-02-23T02:34:42;0.40;;;0.40;;
10335;SDS011;5213;53.548;9.930;2024-02-23T02:37:07;0.45;;;0.45;;
10335;SDS011;5213;53.548;9.930;2024-02-23T02:39:33;0.40;;;0.40;;
10335;SDS011;5213;53.548;9.930;2024-02-23T02:41:59;0.30;;;0.30;;
10335;SDS011;5213;53.548;9.930;2024-02-23T02:44:25;0.25;;;0.25;;
10335;SDS011;5213;53.548;9.930;2024-02-23T02:46:51;0.30;;;0.30;;
10335;SDS011;5213;53.548;9.930;2024-02-23T02:49:17;0.40;;;0.40;;
10335;SDS011;5213;53.548;9.930;2024-02-23T02:51:42;0.30;;;0.30;;
10335;SDS011;5213;53.548;9.930;2024-02-23T02:54:10;0.47;;;0.40;;
10335;SDS011;5213;53.548;9.930;2024-02-23T02:56:35;0.30;;;0.30;;
10335;SDS011;5213;53.548;9.930;2024-02-23T02:59:01;0.30;;;0.30;;
10335;SDS011;5213;53.548;9.930;2024-02-23T03:01:26;0.30;;;0.30;;
10335;SDS011;5213;53.548;9.930;2024-02-23T03:03:52;0.50;;;0.50;;
10335;SDS011;5213;53.548;9.930;2024-02-23T03:06:18;0.60;;;0.60;;
10335;SDS011;5213;53.548;9.930;2024-02-23T03:08:43;0.52;;;0.50;;
10335;SDS011;5213;53.548;9.930;2024-02-23T03:11:09;0.80;;;0.68;;
10335;SDS011;5213;53.548;9.930;2024-02-23T03:13:35;1.90;;;0.73;;
10335;SDS011;5213;53.548;9.930;2024-02-23T03:16:00;0.40;;;0.40;;
10335;SDS011;5213;53.548;9.930;2024-02-23T03:18:26;0.70;;;0.70;;
10335;SDS011;5213;53.548;9.930;2024-02-23T03:20:53;0.68;;;0.68;;
10335;SDS011;5213;53.548;9.930;2024-02-23T03:23:18;0.80;;;0.80;;
10335;SDS011;5213;53.548;9.930;2024-02-23T03:25:44;0.80;;;0.80;;
10335;SDS011;5213;53.548;9.930;2024-02-23T03:28:10;0.98;;;0.82;;
10335;SDS011;5213;53.548;9.930;2024-02-23T03:30:35;0.90;;;0.90;;
10335;SDS011;5213;53.548;9.930;2024-02-23T03:33:01;1.10;;;0.90;;
10335;SDS011;5213;53.548;9.930;2024-02-23T03:35:26;0.80;;;0.80;;
10335;SDS011;5213;53.548;9.930;2024-02-23T03:37:52;0.90;;;0.90;;
10335;SDS011;5213;53.548;9.930;2024-02-23T03:40:17;0.90;;;0.90;;
10335;SDS011;5213;53.548;9.930;2024-02-23T03:42:44;0.88;;;0.88;;
10335;SDS011;5213;53.548;9.930;2024-02-23T03:45:09;1.00;;;1.00;;
10335;SDS011;5213;53.548;9.930;2024-02-23T03:47:35;1.00;;;1.00;;
10335;SDS011;5213;53.548;9.930;2024-02-23T03:50:01;0.80;;;0.80;;
10335;SDS011;5213;53.548;9.930;2024-02-23T03:52:26;1.13;;;0.90;;
10335;SDS011;5213;53.548;9.930;2024-02-23T03:54:52;1.02;;;0.90;;
10335;SDS011;5213;53.548;9.930;2024-02-23T03:57:19;0.80;;;0.80;;
10335;SDS011;5213;53.548;9.930;2024-02-23T03:59:51;1.00;;;1.00;;
10335;SDS011;5213;53.548;9.930;2024-02-23T04:02:20;2.88;;;0.80;;
10335;SDS011;5213;53.548;9.930;2024-02-23T04:04:46;1.05;;;0.95;;
10335;SDS011;5213;53.548;9.930;2024-02-23T04:07:12;2.17;;;1.00;;
10335;SDS011;5213;53.548;9.930;2024-02-23T04:09:38;0.80;;;0.80;;
10335;SDS011;5213;53.548;9.930;2024-02-23T04:12:03;1.08;;;0.95;;
10335;SDS011;5213;53.548;9.930;2024-02-23T04:14:30;0.70;;;0.70;;
10335;SDS011;5213;53.548;9.930;2024-02-23T04:16:56;1.70;;;0.95;;
10335;SDS011;5213;53.548;9.930;2024-02-23T04:19:21;1.25;;;1.10;;
10335;SDS011;5213;53.548;9.930;2024-02-23T04:21:47;1.48;;;0.80;;
10335;SDS011;5213;53.548;9.930;2024-02-23T04:24:12;0.80;;;0.80;;
10335;SDS011;5213;53.548;9.930;2024-02-23T04:26:38;0.77;;;0.77;;
10335;SDS011;5213;53.548;9.930;2024-02-23T04:29:04;0.77;;;0.77;;
10335;SDS011;5213;53.548;9.930;2024-02-23T04:31:29;2.15;;;0.90;;
10335;SDS011;5213;53.548;9.930;2024-02-23T04:33:55;0.80;;;0.80;;
10335;SDS011;5213;53.548;9.930;2024-02-23T04:36:21;0.80;;;0.80;;
10335;SDS011;5213;53.548;9.930;2024-02-23T04:38:46;0.88;;;0.88;;
10335;SDS011;5213;53.548;9.930;2024-02-23T04:41:12;2.72;;;0.90;;
10335;SDS011;5213;53.548;9.930;2024-02-23T04:43:37;1.40;;;1.00;;
10335;SDS011;5213;53.548;9.930;2024-02-23T04:46:03;1.60;;;1.20;;
10335;SDS011;5213;53.548;9.930;2024-02-23T04:48:29;1.80;;;1.70;;
10335;SDS011;5213;53.548;9.930;2024-02-23T04:50:56;2.03;;;1.30;;
10335;SDS011;5213;53.548;9.930;2024-02-23T04:53:22;1.75;;;1.05;;
10335;SDS011;5213;53.548;9.930;2024-02-23T04:55:48;1.30;;;1.20;;
10335;SDS011;5213;53.548;9.930;2024-02-23T04:58:14;1.20;;;1.10;;
10335;SDS011;5213;53.548;9.930;2024-02-23T05:00:39;1.70;;;1.20;;
10335;SDS011;5213;53.548;9.930;2024-02-23T05:03:05;2.58;;;1.50;;
10335;SDS011;5213;53.548;9.930;2024-02-23T05:05:31;1.63;;;1.50;;
10335;SDS011;5213;53.548;9.930;2024-02-23T05:07:57;3.38;;;1.48;;
10335;SDS011;5213;53.548;9.930;2024-02-23T05:10:23;1.98;;;1.50;;
10335;SDS011;5213;53.548;9.930;2024-02-23T05:12:49;3.70;;;1.75;;
10335;SDS011;5213;53.548;9.930;2024-02-23T05:15:15;2.13;;;1.63;;
10335;SDS011;5213;53.548;9.930;2024-02-23T05:17:41;3.63;;;1.80;;
10335;SDS011;5213;53.548;9.930;2024-02-23T05:20:07;4.35;;;2.10;;
10335;SDS011;5213;53.548;9.930;2024-02-23T05:22:36;2.28;;;1.70;;
10335;SDS011;5213;53.548;9.930;2024-02-23T05:25:02;2.42;;;1.83;;
10335;SDS011;5213;53.548;9.930;2024-02-23T05:27:29;2.63;;;2.03;;
10335;SDS011;5213;53.548;9.930;2024-02-23T05:29:55;2.35;;;1.58;;
10335;SDS011;5213;53.548;9.930;2024-02-23T05:32:21;2.05;;;1.92;;
10335;SDS011;5213;53.548;9.930;2024-02-23T05:34:46;3.20;;;2.00;;
10335;SDS011;5213;53.548;9.930;2024-02-23T05:37:16;2.63;;;1.67;;
10335;SDS011;5213;53.548;9.930;2024-02-23T05:39:42;6.65;;;1.90;;
10335;SDS011;5213;53.548;9.930;2024-02-23T05:42:07;2.75;;;1.80;;
10335;SDS011;5213;53.548;9.930;2024-02-23T05:44:33;2.10;;;1.70;;
10335;SDS011;5213;53.548;9.930;2024-02-23T05:46:59;3.20;;;2.15;;
10335;SDS011;5213;53.548;9.930;2024-02-23T05:49:24;2.80;;;1.45;;
10335;SDS011;5213;53.548;9.930;2024-02-23T05:51:50;2.45;;;1.50;;
10335;SDS011;5213;53.548;9.930;2024-02-23T05:54:16;2.97;;;1.60;;
10335;SDS011;5213;53.548;9.930;2024-02-23T05:56:41;2.67;;;1.80;;
10335;SDS011;5213;53.548;9.930;2024-02-23T05:59:09;2.45;;;1.60;;
10335;SDS011;5213;53.548;9.930;2024-02-23T06:01:35;2.22;;;1.42;;
10335;SDS011;5213;53.548;9.930;2024-02-23T06:04:00;2.35;;;1.60;;
10335;SDS011;5213;53.548;9.930;2024-02-23T06:06:26;3.38;;;1.60;;
10335;SDS011;5213;53.548;9.930;2024-02-23T06:08:51;2.45;;;1.50;;
10335;SDS011;5213;53.548;9.930;2024-02-23T06:11:17;1.48;;;1.33;;
10335;SDS011;5213;53.548;9.930;2024-02-23T06:13:43;1.77;;;1.40;;
10335;SDS011;5213;53.548;9.930;2024-02-23T06:16:11;2.00;;;1.40;;
10335;SDS011;5213;53.548;9.930;2024-02-23T06:18:38;1.80;;;1.70;;
10335;SDS011;5213;53.548;9.930;2024-02-23T06:21:15;2.15;;;1.42;;
10335;SDS011;5213;53.548;9.930;2024-02-23T06:23:42;2.38;;;1.65;;
10335;SDS011;5213;53.548;9.930;2024-02-23T06:26:08;2.15;;;1.95;;
10335;SDS011;5213;53.548;9.930;2024-02-23T06:28:34;2.42;;;1.40;;
10335;SDS011;5213;53.548;9.930;2024-02-23T06:30:59;1.70;;;1.60;;
10335;SDS011;5213;53.548;9.930;2024-02-23T06:33:25;3.28;;;1.52;;
10335;SDS011;5213;53.548;9.930;2024-02-23T06:35:50;2.40;;;1.60;;
10335;SDS011;5213;53.548;9.930;2024-02-23T06:38:17;1.40;;;1.30;;
10335;SDS011;5213;53.548;9.930;2024-02-23T06:40:43;2.45;;;1.40;;
10335;SDS011;5213;53.548;9.930;2024-02-23T06:43:08;2.75;;;1.80;;
10335;SDS011;5213;53.548;9.930;2024-02-23T06:45:34;1.77;;;1.67;;
10335;SDS011;5213;53.548;9.930;2024-02-23T06:47:59;2.70;;;1.83;;
10335;SDS011;5213;53.548;9.930;2024-02-23T06:50:25;2.25;;;1.80;;
10335;SDS011;5213;53.548;9.930;2024-02-23T06:52:51;3.10;;;1.50;;
10335;SDS011;5213;53.548;9.930;2024-02-23T06:55:16;2.83;;;1.90;;
10335;SDS011;5213;53.548;9.930;2024-02-23T06:57:42;2.00;;;1.90;;
10335;SDS011;5213;53.548;9.930;2024-02-23T07:00:08;3.67;;;2.08;;
10335;SDS011;5213;53.548;9.930;2024-02-23T07:02:34;2.20;;;1.85;;
10335;SDS011;5213;53.548;9.930;2024-02-23T07:05:02;3.58;;;2.03;;
10335;SDS011;5213;53.548;9.930;2024-02-23T07:07:31;4.70;;;2.10;;
10335;SDS011;5213;53.548;9.930;2024-02-23T07:09:58;3.28;;;1.95;;
10335;SDS011;5213;53.548;9.930;2024-02-23T07:12:24;3.00;;;1.92;;
10335;SDS011;5213;53.548;9.930;2024-02-23T07:14:52;3.50;;;2.00;;
10335;SDS011;5213;53.548;9.930;2024-02-23T07:17:18;5.57;;;2.00;;
10335;SDS011;5213;53.548;9.930;2024-02-23T07:19:44;2.20;;;2.00;;
10335;SDS011;5213;53.548;9.930;2024-02-23T07:22:10;2.70;;;2.08;;
10335;SDS011;5213;53.548;9.930;2024-02-23T07:24:42;4.07;;;2.50;;
10335;SDS011;5213;53.548;9.930;2024-02-23T07:27:08;3.80;;;2.50;;
10335;SDS011;5213;53.548;9.930;2024-02-23T07:29:34;3.22;;;2.03;;
10335;SDS011;5213;53.548;9.930;2024-02-23T07:31:59;2.85;;;2.20;;
10335;SDS011;5213;53.548;9.930;2024-02-23T07:34:25;2.85;;;2.30;;
10335;SDS011;5213;53.548;9.930;2024-02-23T07:36:54;2.38;;;2.17;;
10335;SDS011;5213;53.548;9.930;2024-02-23T07:39:20;4.40;;;2.38;;
10335;SDS011;5213;53.548;9.930;2024-02-23T07:41:46;3.10;;;2.10;;
10335;SDS011;5213;53.548;9.930;2024-02-23T07:44:11;3.25;;;2.10;;
10335;SDS011;5213;53.548;9.930;2024-02-23T07:46:37;3.80;;;2.15;;
10335;SDS011;5213;53.548;9.930;2024-02-23T07:49:03;3.60;;;2.00;;
10335;SDS011;5213;53.548;9.930;2024-02-23T07:51:30;2.15;;;2.00;;
10335;SDS011;5213;53.548;9.930;2024-02-23T07:53:56;2.95;;;2.20;;
10335;SDS011;5213;53.548;9.930;2024-02-23T07:56:22;5.47;;;2.30;;
10335;SDS011;5213;53.548;9.930;2024-02-23T07:58:48;4.20;;;2.00;;
10335;SDS011;5213;53.548;9.930;2024-02-23T08:01:14;3.08;;;2.20;;
10335;SDS011;5213;53.548;9.930;2024-02-23T08:03:40;2.72;;;1.92;;
10335;SDS011;5213;53.548;9.930;2024-02-23T08:06:06;5.38;;;2.00;;
10335;SDS011;5213;53.548;9.930;2024-02-23T08:08:31;2.67;;;2.10;;
10335;SDS011;5213;53.548;9.930;2024-02-23T08:11:00;1.90;;;1.70;;
10335;SDS011;5213;53.548;9.930;2024-02-23T08:13:26;2.17;;;1.75;;
10335;SDS011;5213;53.548;9.930;2024-02-23T08:15:52;3.63;;;1.90;;
10335;SDS011;5213;53.548;9.930;2024-02-23T08:18:18;4.00;;;2.20;;
10335;SDS011;5213;53.548;9.930;2024-02-23T08:20:43;2.33;;;1.90;;
10335;SDS011;5213;53.548;9.930;2024-02-23T08:23:09;2.60;;;2.08;;
10335;SDS011;5213;53.548;9.930;2024-02-23T08:25:35;2.58;;;1.67;;
10335;SDS011;5213;53.548;9.930;2024-02-23T08:28:01;3.55;;;1.83;;
10335;SDS011;5213;53.548;9.930;2024-02-23T08:30:27;2.22;;;1.67;;
10335;SDS011;5213;53.548;9.930;2024-02-23T08:32:53;2.42;;;1.70;;
10335;SDS011;5213;53.548;9.930;2024-02-23T08:35:18;1.98;;;1.48;;
10335;SDS011;5213;53.548;9.930;2024-02-23T08:37:44;4.38;;;1.77;;
10335;SDS011;5213;53.548;9.930;2024-02-23T08:40:10;3.38;;;1.80;;
10335;SDS011;5213;53.548;9.930;2024-02-23T08:42:36;2.17;;;1.70;;
10335;SDS011;5213;53.548;9.930;2024-02-23T08:45:02;5.57;;;2.10;;
10335;SDS011;5213;53.548;9.930;2024-02-23T08:47:29;2.67;;;1.60;;
10335;SDS011;5213;53.548;9.930;2024-02-23T08:49:58;2.97;;;1.70;;
10335;SDS011;5213;53.548;9.930;2024-02-23T08:52:24;3.60;;;1.90;;
10335;SDS011;5213;53.548;9.930;2024-02-23T08:54:50;3.33;;;1.67;;
10335;SDS011;5213;53.548;9.930;2024-02-23T08:57:16;2.28;;;1.70;;
10335;SDS011;5213;53.548;9.930;2024-02-23T08:59:44;2.40;;;1.70;;
10335;SDS011;5213;53.548;9.930;2024-02-23T09:02:10;3.38;;;2.00;;
10335;SDS011;5213;53.548;9.930;2024-02-23T09:04:36;4.18;;;2.20;;
10335;SDS011;5213;53.548;9.930;2024-02-23T09:07:01;6.88;;;1.90;;
10335;SDS011;5213;53.548;9.930;2024-02-23T09:09:27;3.90;;;1.80;;
10335;SDS011;5213;53.548;9.930;2024-02-23T09:11:53;4.38;;;1.88;;
10335;SDS011;5213;53.548;9.930;2024-02-23T09:14:18;2.22;;;1.67;;
10335;SDS011;5213;53.548;9.930;2024-02-23T09:16:44;2.78;;;1.50;;
10335;SDS011;5213;53.548;9.930;2024-02-23T09:19:12;1.77;;;1.42;;
10335;SDS011;5213;53.548;9.930;2024-02-23T09:21:38;3.38;;;2.03;;
10335;SDS011;5213;53.548;9.930;2024-02-23T09:24:03;2.53;;;1.88;;
10335;SDS011;5213;53.548;9.930;2024-02-23T09:26:29;4.35;;;1.60;;
10335;SDS011;5213;53.548;9.930;2024-02-23T09:28:56;5.13;;;1.67;;
10335;SDS011;5213;53.548;9.930;2024-02-23T09:31:21;2.60;;;1.60;;
10335;SDS011;5213;53.548;9.930;2024-02-23T09:33:47;3.22;;;2.10;;
10335;SDS011;5213;53.548;9.930;2024-02-23T09:36:15;5.47;;;1.85;;
10335;SDS011;5213;53.548;9.930;2024-02-23T09:38:41;4.20;;;2.10;;
10335;SDS011;5213;53.548;9.930;2024-02-23T09:41:10;3.92;;;1.90;;
10335;SDS011;5213;53.548;9.930;2024-02-23T09:43:42;4.05;;;2.10;;
10335;SDS011;5213;53.548;9.930;2024-02-23T09:46:11;5.55;;;2.20;;
10335;SDS011;5213;53.548;9.930;2024-02-23T09:48:38;6.68;;;1.90;;
10335;SDS011;5213;53.548;9.930;2024-02-23T09:51:04;5.40;;;1.75;;
10335;SDS011;5213;53.548;9.930;2024-02-23T09:53:31;6.15;;;2.00;;
10335;SDS011;5213;53.548;9.930;2024-02-23T09:56:01;4.97;;;2.10;;
10335;SDS011;5213;53.548;9.930;2024-02-23T09:58:28;5.25;;;1.80;;
10335;SDS011;5213;53.548;9.930;2024-02-23T10:00:57;5.03;;;1.70;;
10335;SDS011;5213;53.548;9.930;2024-02-23T10:03:27;3.72;;;1.70;;
10335;SDS011;5213;53.548;9.930;2024-02-23T10:05:59;4.60;;;2.00;;
10335;SDS011;5213;53.548;9.930;2024-02-23T10:08:28;4.22;;;2.03;;
10335;SDS011;5213;53.548;9.930;2024-02-23T10:10:54;5.60;;;2.05;;
10335;SDS011;5213;53.548;9.930;2024-02-23T10:13:21;4.60;;;2.00;;
10335;SDS011;5213;53.548;9.930;2024-02-23T10:15:48;5.70;;;2.33;;
10335;SDS011;5213;53.548;9.930;2024-02-23T10:18:18;4.72;;;2.05;;
10335;SDS011;5213;53.548;9.930;2024-02-23T10:20:44;4.60;;;1.83;;
10335;SDS011;5213;53.548;9.930;2024-02-23T10:23:11;4.05;;;2.13;;
10335;SDS011;5213;53.548;9.930;2024-02-23T10:25:37;5.22;;;2.05;;
10335;SDS011;5213;53.548;9.930;2024-02-23T10:28:03;4.93;;;2.30;;
10335;SDS011;5213;53.548;9.930;2024-02-23T10:30:30;4.82;;;2.10;;
10335;SDS011;5213;53.548;9.930;2024-02-23T10:32:56;3.20;;;1.90;;
10335;SDS011;5213;53.548;9.930;2024-02-23T10:35:23;4.28;;;1.70;;
10335;SDS011;5213;53.548;9.930;2024-02-23T10:37:49;3.10;;;1.90;;
10335;SDS011;5213;53.548;9.930;2024-02-23T10:40:16;4.88;;;2.03;;
10335;SDS011;5213;53.548;9.930;2024-02-23T10:42:43;5.70;;;2.00;;
10335;SDS011;5213;53.548;9.930;2024-02-23T10:45:12;4.45;;;1.85;;
10335;SDS011;5213;53.548;9.930;2024-02-23T10:47:41;5.60;;;1.98;;
10335;SDS011;5213;53.548;9.930;2024-02-23T10:50:07;3.85;;;1.90;;
10335;SDS011;5213;53.548;9.930;2024-02-23T10:52:33;5.90;;;2.00;;
10335;SDS011;5213;53.548;9.930;2024-02-23T10:55:01;6.50;;;2.05;;
10335;SDS011;5213;53.548;9.930;2024-02-23T10:57:30;2.90;;;1.70;;
10335;SDS011;5213;53.548;9.930;2024-02-23T10:59:59;3.00;;;1.80;;
10335;SDS011;5213;53.548;9.930;2024-02-23T11:02:26;4.65;;;2.05;;
10335;SDS011;5213;53.548;9.930;2024-02-23T11:04:54;4.78;;;1.88;;
10335;SDS011;5213;53.548;9.930;2024-02-23T11:07:22;6.13;;;1.80;;
10335;SDS011;5213;53.548;9.930;2024-02-23T11:09:54;5.15;;;1.70;;
10335;SDS011;5213;53.548;9.930;2024-02-23T11:12:26;4.97;;;1.67;;
10335;SDS011;5213;53.548;9.930;2024-02-23T11:14:58;4.43;;;1.70;;
10335;SDS011;5213;53.548;9.930;2024-02-23T11:17:31;4.53;;;1.88;;
10335;SDS011;5213;53.548;9.930;2024-02-23T11:19:58;4.80;;;1.63;;
10335;SDS011;5213;53.548;9.930;2024-02-23T11:22:35;4.70;;;2.28;;
10335;SDS011;5213;53.548;9.930;2024-02-23T11:25:05;3.17;;;1.80;;
10335;SDS011;5213;53.548;9.930;2024-02-23T11:27:35;4.43;;;1.55;;
10335;SDS011;5213;53.548;9.930;2024-02-23T11:30:03;3.05;;;1.60;;
10335;SDS011;5213;53.548;9.930;2024-02-23T11:32:40;3.78;;;1.67;;
10335;SDS011;5213;53.548;9.930;2024-02-23T11:35:08;5.03;;;1.63;;
10335;SDS011;5213;53.548;9.930;2024-02-23T11:37:46;4.15;;;1.83;;
10335;SDS011;5213;53.548;9.930;2024-02-23T11:40:13;2.58;;;1.77;;
10335;SDS011;5213;53.548;9.930;2024-02-23T11:42:42;4.45;;;2.13;;
10335;SDS011;5213;53.548;9.930;2024-02-23T11:45:11;3.65;;;1.40;;
10335;SDS011;5213;53.548;9.930;2024-02-23T11:47:37;3.15;;;1.65;;
10335;SDS011;5213;53.548;9.930;2024-02-23T11:50:03;4.55;;;1.88;;
10335;SDS011;5213;53.548;9.930;2024-02-23T11:52:32;3.45;;;1.60;;
10335;SDS011;5213;53.548;9.930;2024-02-23T11:54:58;4.72;;;1.45;;
10335;SDS011;5213;53.548;9.930;2024-02-23T11:57:24;3.97;;;1.70;;
10335;SDS011;5213;53.548;9.930;2024-02-23T11:59:51;5.03;;;1.75;;
10335;SDS011;5213;53.548;9.930;2024-02-23T12:02:17;4.72;;;1.70;;
10335;SDS011;5213;53.548;9.930;2024-02-23T12:04:43;4.43;;;1.83;;
10335;SDS011;5213;53.548;9.930;2024-02-23T12:07:09;2.25;;;1.50;;
10335;SDS011;5213;53.548;9.930;2024-02-23T12:09:35;2.95;;;1.63;;
10335;SDS011;5213;53.548;9.930;2024-02-23T12:12:00;2.25;;;1.42;;
10335;SDS011;5213;53.548;9.930;2024-02-23T12:14:27;4.30;;;1.48;;
10335;SDS011;5213;53.548;9.930;2024-02-23T12:16:53;1.20;;;1.10;;
10335;SDS011;5213;53.548;9.930;2024-02-23T12:19:18;4.20;;;1.65;;
10335;SDS011;5213;53.548;9.930;2024-02-23T12:21:47;2.58;;;1.52;;
10335;SDS011;5213;53.548;9.930;2024-02-23T12:24:12;4.13;;;1.67;;
10335;SDS011;5213;53.548;9.930;2024-02-23T12:26:38;5.68;;;1.40;;
10335;SDS011;5213;53.548;9.930;2024-02-23T12:29:04;3.83;;;1.40;;
10335;SDS011;5213;53.548;9.930;2024-02-23T12:31:31;1.55;;;1.42;;
10335;SDS011;5213;53.548;9.930;2024-02-23T12:33:57;5.05;;;1.80;;
10335;SDS011;5213;53.548;9.930;2024-02-23T12:36:23;2.80;;;1.60;;
10335;SDS011;5213;53.548;9.930;2024-02-23T12:38:48;2.53;;;1.58;;
10335;SDS011;5213;53.548;9.930;2024-02-23T12:41:14;2.55;;;1.20;;
10335;SDS011;5213;53.548;9.930;2024-02-23T12:43:40;2.78;;;1.40;;
10335;SDS011;5213;53.548;9.930;2024-02-23T12:46:06;3.85;;;1.50;;
10335;SDS011;5213;53.548;9.930;2024-02-23T12:48:33;2.03;;;1.30;;
10335;SDS011;5213;53.548;9.930;2024-02-23T12:50:59;2.17;;;1.30;;
10335;SDS011;5213;53.548;9.930;2024-02-23T12:53:41;2.42;;;1.27;;
10335;SDS011;5213;53.548;9.930;2024-02-23T12:56:08;2.10;;;1.52;;
10335;SDS011;5213;53.548;9.930;2024-02-23T12:58:36;3.30;;;1.40;;
10335;SDS011;5213;53.548;9.930;2024-02-23T13:01:03;1.48;;;1.20;;
10335;SDS011;5213;53.548;9.930;2024-02-23T13:03:29;6.47;;;1.30;;
10335;SDS011;5213;53.548;9.930;2024-02-23T13:05:55;2.25;;;1.20;;
10335;SDS011;5213;53.548;9.930;2024-02-23T13:08:22;2.65;;;1.80;;
10335;SDS011;5213;53.548;9.930;2024-02-23T13:10:48;2.33;;;1.48;;
10335;SDS011;5213;53.548;9.930;2024-02-23T13:13:14;4.30;;;1.30;;
10335;SDS011;5213;53.548;9.930;2024-02-23T13:15:41;1.50;;;1.40;;
10335;SDS011;5213;53.548;9.930;2024-02-23T13:18:06;1.70;;;1.30;;
10335;SDS011;5213;53.548;9.930;2024-02-23T13:20:33;3.50;;;1.45;;
10335;SDS011;5213;53.548;9.930;2024-02-23T13:22:58;1.63;;;1.48;;
10335;SDS011;5213;53.548;9.930;2024-02-23T13:25:24;2.42;;;1.30;;
10335;SDS011;5213;53.548;9.930;2024-02-23T13:27:49;3.08;;;1.30;;
10335;SDS011;5213;53.548;9.930;2024-02-23T13:30:15;3.78;;;1.48;;
10335;SDS011;5213;53.548;9.930;2024-02-23T13:32:41;1.40;;;1.30;;
10335;SDS011;5213;53.548;9.930;2024-02-23T13:35:06;5.72;;;1.67;;
10335;SDS011;5213;53.548;9.930;2024-02-23T13:37:33;5.50;;;1.30;;
10335;SDS011;5213;53.548;9.930;2024-02-23T13:39:59;3.67;;;1.23;;
10335;SDS011;5213;53.548;9.930;2024-02-23T13:42:25;1.20;;;1.20;;
10335;SDS011;5213;53.548;9.930;2024-02-23T13:44:51;1.85;;;1.35;;
10335;SDS011;5213;53.548;9.930;2024-02-23T13:47:16;2.67;;;2.10;;
10335;SDS011;5213;53.548;9.930;2024-02-23T13:49:42;3.10;;;1.50;;
10335;SDS011;5213;53.548;9.930;2024-02-23T13:52:08;1.25;;;1.10;;
10335;SDS011;5213;53.548;9.930;2024-02-23T13:54:33;2.63;;;1.67;;
10335;SDS011;5213;53.548;9.930;2024-02-23T13:56:59;2.88;;;1.27;;
10335;SDS011;5213;53.548;9.930;2024-02-23T13:59:25;1.23;;;1.13;;
10335;SDS011;5213;53.548;9.930;2024-02-23T14:01:50;2.58;;;1.30;;
10335;SDS011;5213;53.548;9.930;2024-02-23T14:04:16;6.40;;;1.23;;
10335;SDS011;5213;53.548;9.930;2024-02-23T14:06:42;1.60;;;1.30;;
10335;SDS011;5213;53.548;9.930;2024-02-23T14:09:08;1.58;;;1.42;;
10335;SDS011;5213;53.548;9.930;2024-02-23T14:11:34;2.40;;;1.33;;
10335;SDS011;5213;53.548;9.930;2024-02-23T14:14:00;2.47;;;1.40;;
10335;SDS011;5213;53.548;9.930;2024-02-23T14:16:27;1.95;;;0.90;;
10335;SDS011;5213;53.548;9.930;2024-02-23T14:18:53;1.33;;;1.23;;
10335;SDS011;5213;53.548;9.930;2024-02-23T14:21:20;0.90;;;0.90;;
10335;SDS011;5213;53.548;9.930;2024-02-23T14:23:47;1.27;;;0.95;;
10335;SDS011;5213;53.548;9.930;2024-02-23T14:26:13;3.10;;;1.70;;
10335;SDS011;5213;53.548;9.930;2024-02-23T14:28:39;2.88;;;1.20;;
10335;SDS011;5213;53.548;9.930;2024-02-23T14:31:04;1.33;;;1.23;;
10335;SDS011;5213;53.548;9.930;2024-02-23T14:33:31;1.55;;;1.15;;
10335;SDS011;5213;53.548;9.930;2024-02-23T14:35:57;2.08;;;1.05;;
10335;SDS011;5213;53.548;9.930;2024-02-23T14:38:23;3.55;;;1.50;;
10335;SDS011;5213;53.548;9.930;2024-02-23T14:40:49;1.40;;;1.10;;
10335;SDS011;5213;53.548;9.930;2024-02-23T14:43:15;2.78;;;1.23;;
10335;SDS011;5213;53.548;9.930;2024-02-23T14:45:40;3.13;;;1.20;;
10335;SDS011;5213;53.548;9.930;2024-02-23T14:48:06;1.52;;;1.25;;
10335;SDS011;5213;53.548;9.930;2024-02-23T14:50:32;2.05;;;1.30;;
10335;SDS011;5213;53.548;9.930;2024-02-23T14:52:58;1.95;;;1.55;;
10335;SDS011;5213;53.548;9.930;2024-02-23T14:55:24;3.50;;;1.23;;